sensor_id;sensor_type;location;lat;lon;timestamp;pressure;altitude;pressure_sealevel;temperature;humidity
10978;BME280;5542;48.272;10.794;2024-03-17T00:00:25;96394.03;;;8.29;96.21
10978;BME280;5542;48.272;10.794;2024-03-17T00:02:51;96396.06;;;8.33;96.41
10978;BME280;5542;48.272;10.794;2024-03-17T00:05:17;96398.34;;;8.36;96.30
10978;BME280;5542;48.272;10.794;2024-03-17T00:07:46;96400.56;;;8.39;96.29
10978;BME280;5542;48.272;10.794;2024-03-17T00:10:12;96395.31;;;8.39;96.35
10978;BME280;5542;48.272;10.794;2024-03-17T00:12:38;96391.72;;;8.40;96.19
10978;BME280;5542;48.272;10.794;2024-03-17T00:15:05;96392.72;;;8.46;96.20
10978;BME280;5542;48.272;10.794;2024-03-17T00:17:33;96390.91;;;8.46;95.90
10978;BME280;5542;48.272;10.794;2024-03-17T00:19:59;96394.53;;;8.45;95.81
10978;BME280;5542;48.272;10.794;2024-03-17T00:22:27;96397.97;;;8.46;95.75
10978;BME280;5542;48.272;10.794;2024-03-17T00:24:54;96390.09;;;8.46;95.63
10978;BME280;5542;48.272;10.794;2024-03-17T00:27:21;96386.47;;;8.47;95.53
10978;BME280;5542;48.272;10.794;2024-03-17T00:29:48;96380.22;;;8.48;95.30
10978;BME280;5542;48.272;10.794;2024-03-17T00:32:14;96368.31;;;8.52;95.09
10978;BME280;5542;48.272;10.794;2024-03-17T00:34:41;96364.28;;;8.50;94.76
10978;BME280;5542;48.272;10.794;2024-03-17T00:37:07;96362.66;;;8.49;94.77
10978;BME280;5542;48.272;10.794;2024-03-17T00:39:34;96361.06;;;8.48;94.50
10978;BME280;5542;48.272;10.794;2024-03-17T00:42:02;96358.81;;;8.44;94.40
10978;BME280;5542;48.272;10.794;2024-03-17T00:44:28;96361.06;;;8.41;94.34
10978;BME280;5542;48.272;10.794;2024-03-17T00:46:55;96359.03;;;8.36;94.71
10978;BME280;5542;48.272;10.794;2024-03-17T00:49:21;96356.56;;;8.35;94.78
10978;BME280;5542;48.272;10.794;2024-03-17T00:51:47;96358.97;;;8.30;94.74
10978;BME280;5542;48.272;10.794;2024-03-17T00:54:15;96361.19;;;8.26;94.86
10978;BME280;5542;48.272;10.794;2024-03-17T00:56:43;96356.56;;;8.28;94.72
10978;BME280;5542;48.272;10.794;2024-03-17T00:59:10;96362.81;;;8.27;94.58
10978;BME280;5542;48.272;10.794;2024-03-17T01:01:37;96350.91;;;8.25;94.35
10978;BME280;5542;48.272;10.794;2024-03-17T01:04:03;96350.69;;;8.19;94.19
10978;BME280;5542;48.272;10.794;2024-03-17T01:06:31;96339.78;;;8.16;93.90
10978;BME280;5542;48.272;10.794;2024-03-17T01:08:57;96340.00;;;8.14;93.71
10978;BME280;5542;48.272;10.794;2024-03-17T01:11:24;96342.59;;;8.14;93.71
10978;BME280;5542;48.272;10.794;2024-03-17T01:13:50;96347.44;;;8.11;93.43
10978;BME280;5542;48.272;10.794;2024-03-17T01:16:18;96346.19;;;8.07;93.46
10978;BME280;5542;48.272;10.794;2024-03-17T01:18:44;96337.94;;;8.03;93.68
10978;BME280;5542;48.272;10.794;2024-03-17T01:21:11;96337.16;;;8.03;93.80
10978;BME280;5542;48.272;10.794;2024-03-17T01:23:37;96343.38;;;8.02;93.80
10978;BME280;5542;48.272;10.794;2024-03-17T01:26:04;96342.19;;;8.04;93.51
10978;BME280;5542;48.272;10.794;2024-03-17T01:28:30;96340.38;;;8.05;93.15
10978;BME280;5542;48.272;10.794;2024-03-17T01:30:57;96337.91;;;7.96;92.88
10978;BME280;5542;48.272;10.794;2024-03-17T01:33:24;96340.72;;;7.88;93.16
10978;BME280;5542;48.272;10.794;2024-03-17T01:35:51;96335.28;;;7.83;93.49
10978;BME280;5542;48.272;10.794;2024-03-17T01:38:17;96331.81;;;7.83;93.85
10978;BME280;5542;48.272;10.794;2024-03-17T01:40:44;96335.06;;;7.85;94.00
10978;BME280;5542;48.272;10.794;2024-03-17T01:43:10;96332.25;;;7.86;93.72
10978;BME280;5542;48.272;10.794;2024-03-17T01:45:37;96329.63;;;7.86;94.01
10978;BME280;5542;48.272;10.794;2024-03-17T01:48:04;96333.84;;;7.87;93.93
10978;BME280;5542;48.272;10.794;2024-03-17T01:50:37;96324.19;;;7.88;94.21
10978;BME280;5542;48.272;10.794;2024-03-17T01:53:05;96320.97;;;7.86;94.04
10978;BME280;5542;48.272;10.794;2024-03-17T01:55:33;96316.53;;;7.86;93.84
10978;BME280;5542;48.272;10.794;2024-03-17T01:58:00;96317.53;;;7.85;93.92
10978;BME280;5542;48.272;10.794;2024-03-17T02:00:28;96320.53;;;7.82;93.60
10978;BME280;5542;48.272;10.794;2024-03-17T02:02:56;96322.56;;;7.80;93.69
10978;BME280;5542;48.272;10.794;2024-03-17T02:05:23;96311.44;;;7.78;93.69
10978;BME280;5542;48.272;10.794;2024-03-17T02:07:50;96315.72;;;7.79;93.58
10978;BME280;5542;48.272;10.794;2024-03-17T02:10:17;96306.03;;;7.80;93.71
10978;BME280;5542;48.272;10.794;2024-03-17T02:12:44;96310.47;;;7.79;93.50
10978;BME280;5542;48.272;10.794;2024-03-17T02:15:09;96303.22;;;7.81;93.47
10978;BME280;5542;48.272;10.794;2024-03-17T02:17:36;96291.94;;;7.81;93.45
10978;BME280;5542;48.272;10.794;2024-03-17T02:20:03;96292.97;;;7.86;92.91
10978;BME280;5542;48.272;10.794;2024-03-17T02:22:34;96286.09;;;7.85;92.56
10978;BME280;5542;48.272;10.794;2024-03-17T02:25:00;96293.97;;;7.85;92.02
10978;BME280;5542;48.272;10.794;2024-03-17T02:27:27;96292.34;;;7.84;91.85
10978;BME280;5542;48.272;10.794;2024-03-17T02:29:53;96298.16;;;7.73;92.00
10978;BME280;5542;48.272;10.794;2024-03-17T02:32:20;96294.28;;;7.69;92.44
10978;BME280;5542;48.272;10.794;2024-03-17T02:34:48;96292.69;;;7.68;92.76
10978;BME280;5542;48.272;10.794;2024-03-17T02:37:15;96288.09;;;7.70;92.66
10978;BME280;5542;48.272;10.794;2024-03-17T02:39:42;96283.81;;;7.69;92.55
10978;BME280;5542;48.272;10.794;2024-03-17T02:42:10;96292.09;;;7.66;92.56
10978;BME280;5542;48.272;10.794;2024-03-17T02:44:38;96295.28;;;7.61;93.18
10978;BME280;5542;48.272;10.794;2024-03-17T02:47:06;96288.84;;;7.64;93.24
10978;BME280;5542;48.272;10.794;2024-03-17T02:49:35;96292.28;;;7.64;93.32
10978;BME280;5542;48.272;10.794;2024-03-17T02:52:06;96282.00;;;7.63;93.15
10978;BME280;5542;48.272;10.794;2024-03-17T02:54:33;96288.63;;;7.59;93.36
10978;BME280;5542;48.272;10.794;2024-03-17T02:57:02;96285.41;;;7.63;93.45
10978;BME280;5542;48.272;10.794;2024-03-17T02:59:29;96286.63;;;7.61;93.12
10978;BME280;5542;48.272;10.794;2024-03-17T03:01:56;96286.00;;;7.59;93.22
10978;BME280;5542;48.272;10.794;2024-03-17T03:04:23;96287.03;;;7.58;93.27
10978;BME280;5542;48.272;10.794;2024-03-17T03:06:50;96286.22;;;7.57;93.50
10978;BME280;5542;48.272;10.794;2024-03-17T03:09:17;96276.16;;;7.61;93.43
10978;BME280;5542;48.272;10.794;2024-03-17T03:11:51;96273.97;;;7.64;92.95
10978;BME280;5542;48.272;10.794;2024-03-17T03:14:19;96275.75;;;7.64;92.95
10978;BME280;5542;48.272;10.794;2024-03-17T03:16:47;96272.34;;;7.63;92.93
10978;BME280;5542;48.272;10.794;2024-03-17T03:19:14;96263.25;;;7.59;93.11
10978;BME280;5542;48.272;10.794;2024-03-17T03:21:41;96273.94;;;7.58;93.39
10978;BME280;5542;48.272;10.794;2024-03-17T03:24:08;96274.72;;;7.52;93.49
10978;BME280;5542;48.272;10.794;2024-03-17T03:26:35;96275.69;;;7.44;93.67
10978;BME280;5542;48.272;10.794;2024-03-17T03:29:02;96279.72;;;7.47;94.00
10978;BME280;5542;48.272;10.794;2024-03-17T03:31:31;96274.09;;;7.50;94.06
10978;BME280;5542;48.272;10.794;2024-03-17T03:33:57;96265.25;;;7.51;94.15
10978;BME280;5542;48.272;10.794;2024-03-17T03:36:27;96255.19;;;7.54;93.69
10978;BME280;5542;48.272;10.794;2024-03-17T03:38:54;96256.19;;;7.53;93.27
10978;BME280;5542;48.272;10.794;2024-03-17T03:41:23;96256.41;;;7.52;93.68
10978;BME280;5542;48.272;10.794;2024-03-17T03:43:50;96256.78;;;7.49;93.50
10978;BME280;5542;48.272;10.794;2024-03-17T03:46:17;96252.13;;;7.44;93.76
10978;BME280;5542;48.272;10.794;2024-03-17T03:48:45;96257.38;;;7.44;94.08
10978;BME280;5542;48.272;10.794;2024-03-17T03:51:12;96261.78;;;7.43;94.36
10978;BME280;5542;48.272;10.794;2024-03-17T03:53:39;96256.13;;;7.40;94.32
10978;BME280;5542;48.272;10.794;2024-03-17T03:56:07;96261.19;;;7.41;94.17
10978;BME280;5542;48.272;10.794;2024-03-17T03:58:36;96262.59;;;7.44;94.05
10978;BME280;5542;48.272;10.794;2024-03-17T04:01:04;96255.56;;;7.44;93.92
10978;BME280;5542;48.272;10.794;2024-03-17T04:03:31;96259.59;;;7.47;93.92
10978;BME280;5542;48.272;10.794;2024-03-17T04:06:04;96255.97;;;7.48;93.98
10978;BME280;5542;48.272;10.794;2024-03-17T04:08:31;96258.59;;;7.48;94.04
10978;BME280;5542;48.272;10.794;2024-03-17T04:10:58;96256.78;;;7.49;93.95
10978;BME280;5542;48.272;10.794;2024-03-17T04:13:26;96260.03;;;7.51;93.98
10978;BME280;5542;48.272;10.794;2024-03-17T04:15:53;96257.19;;;7.52;93.89
10978;BME280;5542;48.272;10.794;2024-03-17T04:18:22;96261.59;;;7.45;93.61
10978;BME280;5542;48.272;10.794;2024-03-17T04:20:51;96258.75;;;7.40;92.48
10978;BME280;5542;48.272;10.794;2024-03-17T04:23:20;96261.69;;;7.17;93.48
10978;BME280;5542;48.272;10.794;2024-03-17T04:25:46;96264.44;;;7.09;93.87
10978;BME280;5542;48.272;10.794;2024-03-17T04:28:13;96262.94;;;6.93;94.89
10978;BME280;5542;48.272;10.794;2024-03-17T04:30:40;96264.13;;;6.90;95.60
10978;BME280;5542;48.272;10.794;2024-03-17T04:33:08;96263.75;;;6.93;95.71
10978;BME280;5542;48.272;10.794;2024-03-17T04:35:35;96258.03;;;6.83;95.83
10978;BME280;5542;48.272;10.794;2024-03-17T04:38:03;96251.97;;;6.76;96.16
10978;BME280;5542;48.272;10.794;2024-03-17T04:40:31;96259.53;;;6.64;96.88
10978;BME280;5542;48.272;10.794;2024-03-17T04:42:58;96258.06;;;6.55;97.86
10978;BME280;5542;48.272;10.794;2024-03-17T04:45:25;96262.22;;;6.50;98.23
10978;BME280;5542;48.272;10.794;2024-03-17T04:47:52;96255.75;;;6.46;98.84
10978;BME280;5542;48.272;10.794;2024-03-17T04:50:19;96263.03;;;6.50;99.38
10978;BME280;5542;48.272;10.794;2024-03-17T04:52:46;96253.09;;;6.60;99.30
10978;BME280;5542;48.272;10.794;2024-03-17T04:55:14;96255.31;;;6.63;98.67
10978;BME280;5542;48.272;10.794;2024-03-17T04:57:43;96257.06;;;6.56;98.78
10978;BME280;5542;48.272;10.794;2024-03-17T05:00:11;96261.50;;;6.56;99.20
10978;BME280;5542;48.272;10.794;2024-03-17T05:02:39;96262.97;;;6.65;99.52
10978;BME280;5542;48.272;10.794;2024-03-17T05:05:06;96267.06;;;6.74;99.54
10978;BME280;5542;48.272;10.794;2024-03-17T05:07:35;96267.69;;;6.83;99.45
10978;BME280;5542;48.272;10.794;2024-03-17T05:10:03;96261.09;;;6.87;99.71
10978;BME280;5542;48.272;10.794;2024-03-17T05:12:31;96272.19;;;6.89;99.40
10978;BME280;5542;48.272;10.794;2024-03-17T05:14:59;96273.00;;;6.89;99.31
10978;BME280;5542;48.272;10.794;2024-03-17T05:17:25;96273.38;;;6.93;98.99
10978;BME280;5542;48.272;10.794;2024-03-17T05:19:52;96272.00;;;6.97;99.03
10978;BME280;5542;48.272;10.794;2024-03-17T05:22:19;96264.59;;;7.01;98.73
10978;BME280;5542;48.272;10.794;2024-03-17T05:24:46;96267.84;;;7.03;98.81
10978;BME280;5542;48.272;10.794;2024-03-17T05:27:14;96263.00;;;7.06;98.62
10978;BME280;5542;48.272;10.794;2024-03-17T05:29:40;96268.69;;;7.10;98.31
10978;BME280;5542;48.272;10.794;2024-03-17T05:32:08;96265.25;;;7.09;98.12
10978;BME280;5542;48.272;10.794;2024-03-17T05:34:35;96266.66;;;7.12;98.01
10978;BME280;5542;48.272;10.794;2024-03-17T05:37:02;96268.31;;;7.13;97.99
10978;BME280;5542;48.272;10.794;2024-03-17T05:39:29;96266.50;;;7.13;97.97
10978;BME280;5542;48.272;10.794;2024-03-17T05:41:56;96269.28;;;7.12;97.98
10978;BME280;5542;48.272;10.794;2024-03-17T05:44:22;96264.47;;;7.15;97.86
10978;BME280;5542;48.272;10.794;2024-03-17T05:46:49;96263.28;;;7.18;97.70
10978;BME280;5542;48.272;10.794;2024-03-17T05:49:19;96272.75;;;7.19;97.48
10978;BME280;5542;48.272;10.794;2024-03-17T05:51:46;96263.72;;;7.22;97.12
10978;BME280;5542;48.272;10.794;2024-03-17T05:54:13;96270.34;;;7.24;96.61
10978;BME280;5542;48.272;10.794;2024-03-17T05:56:40;96267.28;;;7.14;96.63
10978;BME280;5542;48.272;10.794;2024-03-17T05:59:07;96276.16;;;7.13;97.06
10978;BME280;5542;48.272;10.794;2024-03-17T06:01:33;96279.00;;;7.18;97.48
10978;BME280;5542;48.272;10.794;2024-03-17T06:04:01;96277.19;;;7.18;97.51
10978;BME280;5542;48.272;10.794;2024-03-17T06:06:31;96281.41;;;7.19;97.63
10978;BME280;5542;48.272;10.794;2024-03-17T06:08:58;96274.34;;;7.20;97.52
10978;BME280;5542;48.272;10.794;2024-03-17T06:11:25;96277.97;;;7.19;97.92
10978;BME280;5542;48.272;10.794;2024-03-17T06:13:52;96274.13;;;7.15;98.02
10978;BME280;5542;48.272;10.794;2024-03-17T06:16:18;96279.22;;;7.23;97.53
10978;BME280;5542;48.272;10.794;2024-03-17T06:18:46;96276.81;;;7.22;97.60
10978;BME280;5542;48.272;10.794;2024-03-17T06:21:15;96275.22;;;7.27;97.78
10978;BME280;5542;48.272;10.794;2024-03-17T06:23:44;96281.63;;;7.25;97.72
10978;BME280;5542;48.272;10.794;2024-03-17T06:26:12;96269.19;;;7.33;97.44
10978;BME280;5542;48.272;10.794;2024-03-17T06:28:39;96274.19;;;7.22;97.53
10978;BME280;5542;48.272;10.794;2024-03-17T06:31:06;96272.38;;;7.22;98.39
10978;BME280;5542;48.272;10.794;2024-03-17T06:33:35;96267.53;;;7.26;98.79
10978;BME280;5542;48.272;10.794;2024-03-17T06:36:02;96275.44;;;7.32;98.61
10978;BME280;5542;48.272;10.794;2024-03-17T06:38:30;96275.25;;;7.40;97.87
10978;BME280;5542;48.272;10.794;2024-03-17T06:40:58;96272.84;;;7.39;97.88
10978;BME280;5542;48.272;10.794;2024-03-17T06:43:25;96279.50;;;7.41;97.85
10978;BME280;5542;48.272;10.794;2024-03-17T06:45:55;96273.06;;;7.44;97.87
10978;BME280;5542;48.272;10.794;2024-03-17T06:48:23;96272.25;;;7.43;97.76
10978;BME280;5542;48.272;10.794;2024-03-17T06:50:50;96271.88;;;7.47;97.77
10978;BME280;5542;48.272;10.794;2024-03-17T06:53:18;96270.28;;;7.46;98.41
10978;BME280;5542;48.272;10.794;2024-03-17T06:55:52;96266.81;;;7.45;98.58
10978;BME280;5542;48.272;10.794;2024-03-17T06:58:21;96269.88;;;7.49;98.69
10978;BME280;5542;48.272;10.794;2024-03-17T07:00:53;96273.34;;;7.62;97.50
10978;BME280;5542;48.272;10.794;2024-03-17T07:03:20;96275.75;;;7.64;96.61
10978;BME280;5542;48.272;10.794;2024-03-17T07:05:51;96281.63;;;7.66;96.60
10978;BME280;5542;48.272;10.794;2024-03-17T07:08:18;96263.28;;;7.66;96.31
10978;BME280;5542;48.272;10.794;2024-03-17T07:10:55;96270.94;;;7.61;96.37
10978;BME280;5542;48.272;10.794;2024-03-17T07:13:23;96272.53;;;7.62;96.18
10978;BME280;5542;48.272;10.794;2024-03-17T07:15:50;96274.16;;;7.63;96.59
10978;BME280;5542;48.272;10.794;2024-03-17T07:18:16;96275.00;;;7.70;96.98
10978;BME280;5542;48.272;10.794;2024-03-17T07:20:43;96276.66;;;7.84;96.83
10978;BME280;5542;48.272;10.794;2024-03-17T07:23:13;96272.22;;;7.91;95.64
10978;BME280;5542;48.272;10.794;2024-03-17T07:25:39;96274.06;;;7.98;95.01
10978;BME280;5542;48.272;10.794;2024-03-17T07:28:06;96276.91;;;8.09;94.59
10978;BME280;5542;48.272;10.794;2024-03-17T07:30:34;96273.25;;;8.04;93.82
10978;BME280;5542;48.272;10.794;2024-03-17T07:33:01;96274.06;;;8.04;93.39
10978;BME280;5542;48.272;10.794;2024-03-17T07:35:28;96271.06;;;8.20;91.87
10978;BME280;5542;48.272;10.794;2024-03-17T07:37:56;96273.09;;;8.12;92.48
10978;BME280;5542;48.272;10.794;2024-03-17T07:40:23;96270.09;;;8.21;92.84
10978;BME280;5542;48.272;10.794;2024-03-17T07:42:49;96265.00;;;8.20;92.63
10978;BME280;5542;48.272;10.794;2024-03-17T07:45:16;96271.25;;;8.26;92.54
10978;BME280;5542;48.272;10.794;2024-03-17T07:47:45;96265.84;;;8.27;92.51
10978;BME280;5542;48.272;10.794;2024-03-17T07:50:12;96260.44;;;8.42;92.45
10978;BME280;5542;48.272;10.794;2024-03-17T07:52:38;96265.88;;;8.54;91.11
10978;BME280;5542;48.272;10.794;2024-03-17T07:55:06;96267.50;;;8.48;91.35
10978;BME280;5542;48.272;10.794;2024-03-17T07:57:34;96262.84;;;8.43;92.70
10978;BME280;5542;48.272;10.794;2024-03-17T08:00:01;96263.66;;;8.44;93.28
10978;BME280;5542;48.272;10.794;2024-03-17T08:02:29;96265.50;;;8.50;92.91
10978;BME280;5542;48.272;10.794;2024-03-17T08:04:57;96267.88;;;8.58;95.07
10978;BME280;5542;48.272;10.794;2024-03-17T08:07:24;96268.50;;;8.67;95.88
10978;BME280;5542;48.272;10.794;2024-03-17T08:09:51;96261.84;;;8.84;92.96
10978;BME280;5542;48.272;10.794;2024-03-17T08:12:17;96256.16;;;8.94;93.67
10978;BME280;5542;48.272;10.794;2024-03-17T08:14:44;96256.94;;;9.14;91.62
10978;BME280;5542;48.272;10.794;2024-03-17T08:17:11;96256.13;;;9.14;92.19
10978;BME280;5542;48.272;10.794;2024-03-17T08:19:38;96256.53;;;9.17;92.02
10978;BME280;5542;48.272;10.794;2024-03-17T08:22:08;96255.66;;;9.30;93.56
10978;BME280;5542;48.272;10.794;2024-03-17T08:24:34;96250.31;;;9.57;92.55
10978;BME280;5542;48.272;10.794;2024-03-17T08:27:01;96243.31;;;9.82;94.02
10978;BME280;5542;48.272;10.794;2024-03-17T08:29:28;96242.06;;;10.23;91.86
10978;BME280;5542;48.272;10.794;2024-03-17T08:31:55;96240.09;;;10.50;90.42
10978;BME280;5542;48.272;10.794;2024-03-17T08:34:30;96235.44;;;10.70;84.86
10978;BME280;5542;48.272;10.794;2024-03-17T08:36:57;96230.44;;;10.62;84.38
10978;BME280;5542;48.272;10.794;2024-03-17T08:39:26;96219.34;;;10.60;85.77
10978;BME280;5542;48.272;10.794;2024-03-17T08:41:53;96232.47;;;10.85;84.50
10978;BME280;5542;48.272;10.794;2024-03-17T08:44:19;96224.97;;;10.89;83.61
10978;BME280;5542;48.272;10.794;2024-03-17T08:46:46;96215.69;;;11.05;83.41
10978;BME280;5542;48.272;10.794;2024-03-17T08:49:20;96220.22;;;11.16;83.35
10978;BME280;5542;48.272;10.794;2024-03-17T08:51:47;96216.63;;;11.28;81.55
10978;BME280;5542;48.272;10.794;2024-03-17T08:54:14;96205.16;;;11.71;80.98
10978;BME280;5542;48.272;10.794;2024-03-17T08:56:42;96209.13;;;12.11;79.64
10978;BME280;5542;48.272;10.794;2024-03-17T08:59:09;96211.09;;;12.27;78.29
10978;BME280;5542;48.272;10.794;2024-03-17T09:01:37;96203.16;;;12.27;75.64
10978;BME280;5542;48.272;10.794;2024-03-17T09:04:04;96206.06;;;12.61;75.63
10978;BME280;5542;48.272;10.794;2024-03-17T09:06:31;96203.31;;;12.79;70.16
10978;BME280;5542;48.272;10.794;2024-03-17T09:08:58;96210.88;;;12.99;71.92
10978;BME280;5542;48.272;10.794;2024-03-17T09:11:25;96205.22;;;13.71;73.31
10978;BME280;5542;48.272;10.794;2024-03-17T09:13:55;96199.50;;;14.36;61.69
10978;BME280;5542;48.272;10.794;2024-03-17T09:16:24;96180.91;;;14.65;59.81
10978;BME280;5542;48.272;10.794;2024-03-17T09:18:51;96193.75;;;14.73;60.52
10978;BME280;5542;48.272;10.794;2024-03-17T09:21:18;96180.44;;;14.51;60.52
10978;BME280;5542;48.272;10.794;2024-03-17T09:23:45;96176.72;;;14.69;58.90
10978;BME280;5542;48.272;10.794;2024-03-17T09:26:12;96183.00;;;14.63;57.89
10978;BME280;5542;48.272;10.794;2024-03-17T09:28:41;96187.84;;;14.37;56.44
10978;BME280;5542;48.272;10.794;2024-03-17T09:31:11;96186.00;;;14.04;58.57
10978;BME280;5542;48.272;10.794;2024-03-17T09:33:38;96185.47;;;13.73;61.11
10978;BME280;5542;48.272;10.794;2024-03-17T09:36:06;96181.94;;;13.68;61.94
10978;BME280;5542;48.272;10.794;2024-03-17T09:38:33;96180.38;;;13.72;57.58
10978;BME280;5542;48.272;10.794;2024-03-17T09:41:01;96178.38;;;13.62;56.45
10978;BME280;5542;48.272;10.794;2024-03-17T09:43:29;96178.41;;;13.50;58.23
10978;BME280;5542;48.272;10.794;2024-03-17T09:45:58;96170.16;;;13.47;59.81
10978;BME280;5542;48.272;10.794;2024-03-17T09:48:28;96171.44;;;13.44;61.34
10978;BME280;5542;48.272;10.794;2024-03-17T09:50:56;96177.22;;;13.29;62.17
10978;BME280;5542;48.272;10.794;2024-03-17T09:53:24;96168.56;;;13.46;60.86
10978;BME280;5542;48.272;10.794;2024-03-17T09:55:53;96168.75;;;13.56;60.31
10978;BME280;5542;48.272;10.794;2024-03-17T09:58:22;96172.53;;;13.60;62.57
10978;BME280;5542;48.272;10.794;2024-03-17T10:00:52;96172.59;;;13.77;60.55
10978;BME280;5542;48.272;10.794;2024-03-17T10:03:43;96165.38;;;13.72;59.61
10978;BME280;5542;48.272;10.794;2024-03-17T10:06:11;96169.41;;;13.63;61.52
10978;BME280;5542;48.272;10.794;2024-03-17T10:08:42;96163.41;;;13.96;59.66
10978;BME280;5542;48.272;10.794;2024-03-17T10:11:10;96162.00;;;13.77;59.98
10978;BME280;5542;48.272;10.794;2024-03-17T10:13:37;96169.44;;;13.80;61.95
10978;BME280;5542;48.272;10.794;2024-03-17T10:16:10;96159.75;;;13.86;59.67
10978;BME280;5542;48.272;10.794;2024-03-17T10:19:05;96159.78;;;13.57;61.53
10978;BME280;5542;48.272;10.794;2024-03-17T10:21:43;96159.75;;;13.69;62.88
10978;BME280;5542;48.272;10.794;2024-03-17T10:24:18;96154.25;;;13.87;61.59
10978;BME280;5542;48.272;10.794;2024-03-17T10:26:48;96148.81;;;14.11;58.03
10978;BME280;5542;48.272;10.794;2024-03-17T10:29:20;96151.38;;;14.05;58.98
10978;BME280;5542;48.272;10.794;2024-03-17T10:31:50;96146.81;;;14.18;59.79
10978;BME280;5542;48.272;10.794;2024-03-17T10:34:18;96141.19;;;14.31;57.46
10978;BME280;5542;48.272;10.794;2024-03-17T10:36:45;96143.84;;;14.31;58.15
10978;BME280;5542;48.272;10.794;2024-03-17T10:39:23;96137.84;;;14.35;56.12
10978;BME280;5542;48.272;10.794;2024-03-17T10:41:56;96137.81;;;14.19;57.95
10978;BME280;5542;48.272;10.794;2024-03-17T10:44:24;96138.94;;;14.23;58.33
10978;BME280;5542;48.272;10.794;2024-03-17T10:46:54;96133.44;;;14.24;59.38
10978;BME280;5542;48.272;10.794;2024-03-17T10:49:28;96127.41;;;14.29;56.91
10978;BME280;5542;48.272;10.794;2024-03-17T10:51:58;96134.06;;;14.15;58.73
10978;BME280;5542;48.272;10.794;2024-03-17T10:54:28;96126.22;;;14.20;59.29
10978;BME280;5542;48.272;10.794;2024-03-17T10:56:56;96140.31;;;14.25;59.84
10978;BME280;5542;48.272;10.794;2024-03-17T10:59:34;96133.59;;;14.34;58.46
10978;BME280;5542;48.272;10.794;2024-03-17T11:02:15;96127.72;;;14.32;56.46
10978;BME280;5542;48.272;10.794;2024-03-17T11:04:45;96128.94;;;14.25;58.21
10978;BME280;5542;48.272;10.794;2024-03-17T11:07:16;96124.94;;;14.39;58.13
10978;BME280;5542;48.272;10.794;2024-03-17T11:09:45;96124.94;;;14.39;55.92
10978;BME280;5542;48.272;10.794;2024-03-17T11:12:41;96128.69;;;14.43;55.78
10978;BME280;5542;48.272;10.794;2024-03-17T11:15:37;96132.25;;;14.49;55.09
10978;BME280;5542;48.272;10.794;2024-03-17T11:18:35;96128.94;;;14.25;56.30
10978;BME280;5542;48.272;10.794;2024-03-17T11:24:21;96124.84;;;14.34;56.04
10978;BME280;5542;48.272;10.794;2024-03-17T11:26:48;96128.22;;;14.29;56.27
10978;BME280;5542;48.272;10.794;2024-03-17T11:29:28;96140.97;;;14.16;57.72
10978;BME280;5542;48.272;10.794;2024-03-17T11:31:58;96138.88;;;14.18;56.23
10978;BME280;5542;48.272;10.794;2024-03-17T11:34:32;96141.28;;;14.02;52.67
10978;BME280;5542;48.272;10.794;2024-03-17T11:37:00;96130.31;;;14.11;50.93
10978;BME280;5542;48.272;10.794;2024-03-17T11:39:50;96134.47;;;14.06;51.93
10978;BME280;5542;48.272;10.794;2024-03-17T11:42:21;96129.56;;;13.98;53.60
10978;BME280;5542;48.272;10.794;2024-03-17T11:45:12;96121.34;;;14.12;53.23
10978;BME280;5542;48.272;10.794;2024-03-17T11:47:41;96118.00;;;14.38;51.72
10978;BME280;5542;48.272;10.794;2024-03-17T11:50:09;96118.84;;;14.39;54.11
10978;BME280;5542;48.272;10.794;2024-03-17T11:52:37;96109.84;;;14.40;56.09
10978;BME280;5542;48.272;10.794;2024-03-17T11:55:15;96115.38;;;14.38;58.67
10978;BME280;5542;48.272;10.794;2024-03-17T11:57:42;96108.63;;;14.47;56.42
10978;BME280;5542;48.272;10.794;2024-03-17T12:00:19;96109.66;;;14.46;56.90
10978;BME280;5542;48.272;10.794;2024-03-17T12:05:31;96096.59;;;14.73;57.17
10978;BME280;5542;48.272;10.794;2024-03-17T12:07:58;96093.75;;;14.80;54.89
10978;BME280;5542;48.272;10.794;2024-03-17T12:10:26;96091.34;;;14.78;55.00
10978;BME280;5542;48.272;10.794;2024-03-17T12:12:53;96090.56;;;14.78;55.38
10978;BME280;5542;48.272;10.794;2024-03-17T12:15:20;96077.44;;;14.88;54.50
10978;BME280;5542;48.272;10.794;2024-03-17T12:17:52;96084.16;;;14.96;55.28
10978;BME280;5542;48.272;10.794;2024-03-17T12:20:18;96076.31;;;15.06;55.33
10978;BME280;5542;48.272;10.794;2024-03-17T12:22:46;96072.94;;;15.10;54.15
10978;BME280;5542;48.272;10.794;2024-03-17T12:25:17;96069.09;;;15.23;52.96
10978;BME280;5542;48.272;10.794;2024-03-17T12:27:46;96061.50;;;15.32;49.80
10978;BME280;5542;48.272;10.794;2024-03-17T12:30:18;96061.41;;;15.22;51.54
10978;BME280;5542;48.272;10.794;2024-03-17T12:32:46;96065.03;;;15.16;49.98
10978;BME280;5542;48.272;10.794;2024-03-17T12:35:14;96062.41;;;15.16;50.75
10978;BME280;5542;48.272;10.794;2024-03-17T12:37:43;96059.63;;;15.05;51.39
10978;BME280;5542;48.272;10.794;2024-03-17T12:40:18;96052.19;;;15.02;50.39
10978;BME280;5542;48.272;10.794;2024-03-17T12:42:49;96058.22;;;14.76;51.22
10978;BME280;5542;48.272;10.794;2024-03-17T12:45:19;96062.66;;;14.70;53.14
10978;BME280;5542;48.272;10.794;2024-03-17T12:47:47;96055.63;;;14.59;51.71
10978;BME280;5542;48.272;10.794;2024-03-17T12:50:13;96053.97;;;14.53;52.71
10978;BME280;5542;48.272;10.794;2024-03-17T12:52:43;96060.53;;;14.50;53.94
10978;BME280;5542;48.272;10.794;2024-03-17T12:55:18;96056.28;;;14.71;52.25
10978;BME280;5542;48.272;10.794;2024-03-17T12:58:08;96049.75;;;14.57;52.84
10978;BME280;5542;48.272;10.794;2024-03-17T13:00:57;96050.59;;;14.57;53.90
10978;BME280;5542;48.272;10.794;2024-03-17T13:03:25;96049.03;;;14.83;52.88
10978;BME280;5542;48.272;10.794;2024-03-17T13:05:57;96049.59;;;14.85;49.70
10978;BME280;5542;48.272;10.794;2024-03-17T13:08:24;96048.66;;;14.75;50.89
10978;BME280;5542;48.272;10.794;2024-03-17T13:10:51;96050.94;;;14.66;52.02
10978;BME280;5542;48.272;10.794;2024-03-17T13:13:19;96051.19;;;14.65;51.62
10978;BME280;5542;48.272;10.794;2024-03-17T13:15:46;96042.47;;;14.64;51.03
10978;BME280;5542;48.272;10.794;2024-03-17T13:18:16;96049.41;;;14.48;53.38
10978;BME280;5542;48.272;10.794;2024-03-17T13:20:45;96045.78;;;14.54;54.41